Strona główna
METAR-TAF:

METAR-TAF

Lotnisko :

Hrabstwo Jasper, Indiana, Stany Zjednoczone

Szerokość geograficzna: 40-56-52N, Długość geograficzna: 087-10-57W, wysokość: 213 m

Aktualna obserwacja pogody

Raport powstał 15 minut temu, godzina 11:35 UTC
Cisza
Temperatura 1°C
Wilgotność 93%
Ciśnienie 1013 hPa
Widzialność: 16.1 km
bezchmurnie

METAR: KRZL 241135Z AUTO 00000KT 10SM CLR 01/00 A2991 RMK AO2

czas: 06:50 (11:50 UTC)


TAF: brakujący

Obserwacja i prognoza pogody dla ponad 4000 lotnisk (raport METAR i TAF).

Dostępne stacje oznaczono żółtymi i czerwonymi punktami na mapie.

Najedź kursorem aby zobaczyć nazwę stacji.

Kliknij aby zobaczyć obserwacje i prognozy pogody.

Aby zmienić mapę: kliknij na zielony przycisk z czarnym krzyżykiem, aby powiększyć; na zielony przycisk z myślnikiem, aby pomniejszyć; na zielone strzałki, aby przejść do map sąsiednich.


METAR-TAF: